Wellfleet, NE (69170)

10:48 AM CST on February 12, 2016 (GMT -0600)
Sagebrush | | Change Station
CLOSE
Current Station
Personal Weather Station
Location: North Platte, NE
Elevation: 3018 ft
Nearby Weather Stations
Active Advisory: Special Statement

Elev 3018 ft 41.06 °N, 100.76 °W | Updated 14 seconds ago

Overcast
Overcast
34.2 °F
Feels Like 26 °F
N
11.2
Wind Variable Wind from North
Gusts 12.3 mph

Today
High -- | Low -- °F
--% Chance of Precip.
Yesterday
High -- | Low -- °F
Precip. -- in
Pressure 30.44 in
Visibility 10.0 miles
Clouds Overcast 1500 ft
Windchill 26 °F
Dew Point 26 °F
Humidity 73%
Rainfall 0.00 in
Snow Depth Not available.
7:41 AM 6:13 PM
Waxing Crescent, 22% visible
METAR KLBF 121553Z AUTO 36013KT 10SM OVC015 02/M02 A3039 RMK AO2 SLP308 T00171017
Pressure 30.44 in
Visibility 10.0 miles
Clouds Overcast 1500 ft
Windchill 26 °F
Dew Point 26 °F
Humidity 73%
Rainfall 0.00 in
Snow Depth Not available.
7:41 AM 6:13 PM
Waxing Crescent, 22% visible
METAR KLBF 121553Z AUTO 36013KT 10SM OVC015 02/M02 A3039 RMK AO2 SLP308 T00171017

10-Day Weather Forecast

Almanac

Astronomy

Feb. 12, 2016 Rise Set
Actual Time
Civil Twilight
Nautical Twilight
Astronomical Twilight
Moon
Length of Visible Light
Length of Day
Tomorrow will be .
, % of the Moon is Illuminated

Today's Extremes

State Highs State Lows

Community

WunderPhotos

Upload Photos

1,892,354 photos uploaded!

WunderBlog® & News

Nearby

Air Quality

  Air Quality AQ Index Pollutant
Not available.

Snow Depth

Station Depth Elevation

Earthquake Activity

City Distance Mag. Time & Date
Minimum magnitude displayed is 2.5.

Coastal Water Temperatures

Place Temperature

Stations

Nearby Weather Stations

Station Location Temp. Windchill Dew Point Humidity Wind Precip. Elev Updated Type
                   

Watches & Warnings

Special Statement
Issued: 2:08 AM MST Feb. 12, 2016 – National Weather Service

An Arctic cold front will stall across the Nebraska Panhandle
this evening... then move back to the east tonight and Saturday.
As this front moves east as a warm front... patchy freezing
drizzle will be possible tonight into Saturday morning... .mainly
west of Highway 183. For areas to the east... a chance for light
snow is expected.

Motorists planning travel tonight into Saturday morning should be
prepared for possible slick spots on roadways.


Roberg


308 am CST Fri Feb 12 2016 /208 am MST Fri Feb 12 2016/

An Arctic cold front will stall across the Nebraska Panhandle
this evening... then move back to the east tonight and Saturday.
As this front moves east as a warm front... patchy freezing
drizzle will be possible tonight into Saturday morning... .mainly
west of Highway 183. For areas to the east... a chance for light
snow is expected.

Motorists planning travel tonight into Saturday morning should be
prepared for possible slick spots on roadways.


Roberg